Time;durP1;ratioP1;P1;durP2;ratioP2;P2;SDS_P1;SDS_P2;PMS_P1;PMS_P2;Temp;Humidity;BMP_temperature;BMP_pressure;BME280_temperature;BME280_humidity;BME280_pressure;Samples;Min_cycle;Max_cycle;Signal;HPM_P1;HPM_P2
2022/02/22 00:00:18;;;;;;;;;40.33;32.67;;;;;3.67;87.56;98611.63;6281832;20;2859747;-49
2022/02/22 00:02:50;;;;;;;;;41.00;36.67;;;;;3.67;87.56;98611.63;6311723;20;2867149;-51
2022/02/22 00:05:20;;;;;;;;;48.67;40.00;;;;;3.65;88.07;98611.69;6314158;20;2874337;-49
2022/02/22 00:07:48;;;;;;;;;44.50;40.50;;;;;3.53;87.91;98596.41;6312000;20;2859637;-48
2022/02/22 00:10:18;;;;;;;;;58.00;43.00;;;;;3.41;88.97;98604.97;6280523;20;2881494;-52
2022/02/22 00:12:48;;;;;;;;;49.00;38.33;;;;;3.45;88.52;98599.44;6312866;20;2871167;-51
2022/02/22 00:15:16;;;;;;;;;54.00;46.00;;;;;3.52;88.85;98607.94;6312931;20;2869024;-49
2022/02/22 00:17:45;;;;;;;;;54.00;41.50;;;;;3.33;88.90;98610.66;6282564;20;2862783;-51
2022/02/22 00:20:16;;;;;;;;;61.33;44.67;;;;;3.22;89.25;98605.03;6279969;20;2881767;-51
2022/02/22 00:22:45;;;;;;;;;53.00;44.00;;;;;2.93;90.39;98599.34;6311762;20;2508687;-48
2022/02/22 00:25:13;;;;;;;;;58.00;46.50;;;;;2.80;90.70;98596.41;6280060;20;2868023;-48
2022/02/22 00:27:45;;;;;;;;;57.50;41.00;;;;;2.97;90.89;98602.69;6281244;20;2870068;-49
2022/02/22 00:30:15;;;;;;;;;55.50;42.50;;;;;2.86;90.91;98596.13;6280259;20;2863852;-50
2022/02/22 00:32:45;;;;;;;;;49.50;42.00;;;;;2.88;91.28;98604.00;6280383;20;2861748;-53
2022/02/22 00:35:15;;;;;;;;;59.33;44.00;;;;;3.03;90.67;98602.44;6282521;20;2880490;-52
2022/02/22 00:37:44;;;;;;;;;46.50;41.00;;;;;2.97;90.16;98602.69;6312177;20;2850323;-50
2022/02/22 00:40:14;;;;;;;;;43.50;38.00;;;;;3.05;89.53;98601.41;6280566;20;2868994;-51
2022/02/22 00:42:42;;;;;;;;;25.50;22.00;;;;;3.23;88.42;98607.59;6279886;20;2816917;-49
2022/02/22 00:45:12;;;;;;;;;46.67;37.33;;;;;3.31;87.80;98607.22;6280369;20;2873221;-49
2022/02/22 00:47:42;;;;;;;;;51.33;40.33;;;;;3.49;87.45;98605.44;6308866;20;3625313;-47
2022/02/22 00:50:11;;;;;;;;;36.00;34.50;;;;;3.54;87.05;98608.72;6312578;20;2855466;-51
2022/02/22 00:52:40;;;;;;;;;39.00;36.00;;;;;3.59;86.62;98601.41;6281214;20;2848164;-52
2022/02/22 00:55:09;;;;;;;;;55.00;41.00;;;;;3.60;86.30;98603.09;6282546;20;2870089;-51
2022/02/22 00:57:41;;;;;;;;;48.33;37.33;;;;;3.64;86.21;98604.69;6278540;20;2879594;-51
2022/02/22 01:00:11;;;;;;;;;40.50;31.50;;;;;3.46;86.59;98611.75;6311221;20;2850363;-49
2022/02/22 01:02:42;;;;;;;;;51.67;42.00;;;;;3.58;86.62;98605.00;6274979;20;2868019;-47
2022/02/22 01:05:12;;;;;;;;;41.33;33.67;;;;;3.55;86.32;98596.31;6311613;20;3618962;-51
2022/02/22 01:07:41;;;;;;;;;45.00;37.00;;;;;3.66;86.40;98599.28;6310294;20;2860665;-51
2022/02/22 01:10:11;;;;;;;;;43.33;37.33;;;;;3.67;85.76;98599.22;6278417;20;2864876;-50
2022/02/22 01:12:40;;;;;;;;;46.33;38.67;;;;;3.56;85.95;98598.91;6312128;20;3614805;-49
2022/02/22 01:15:10;;;;;;;;;43.33;39.00;;;;;3.66;86.34;98597.50;6310390;20;3620151;-49
2022/02/22 01:17:39;;;;;;;;;44.50;39.00;;;;;3.58;86.86;98594.38;6308851;20;2862897;-51
2022/02/22 01:20:10;;;;;;;;;43.33;37.33;;;;;3.59;87.10;98593.44;6277770;20;2868202;-52
2022/02/22 01:22:40;;;;;;;;;40.00;36.33;;;;;3.42;87.22;98594.28;6314473;20;2872512;-54
2022/02/22 01:25:11;;;;;;;;;51.67;41.00;;;;;3.27;88.30;98595.91;6315874;20;3633669;-51
2022/02/22 01:27:41;;;;;;;;;51.67;36.67;;;;;3.38;88.78;98597.16;6312045;20;3643993;-52
2022/02/22 01:30:11;;;;;;;;;57.67;41.33;;;;;3.33;88.62;98589.44;6317163;20;3647102;-50
2022/02/22 01:32:40;;;;;;;;;49.00;41.67;;;;;3.33;89.29;98593.88;6318567;20;2856620;-49
2022/02/22 01:35:11;;;;;;;;;47.67;39.33;;;;;3.20;89.62;98591.84;6317260;20;2871290;-52
2022/02/22 01:37:39;;;;;;;;;43.50;40.50;;;;;3.55;88.57;98591.84;6317450;20;2844175;-51
2022/02/22 01:40:10;;;;;;;;;42.50;41.00;;;;;3.32;88.78;98600.13;6283016;20;2867002;-53
2022/02/22 01:42:38;;;;;;;;;37.00;33.50;;;;;3.58;87.68;98599.69;6284427;20;2858587;-52
2022/02/22 01:45:09;;;;;;;;;54.67;39.00;;;;;3.54;87.46;98598.13;6285140;20;3633556;-54
2022/02/22 01:47:39;;;;;;;;;52.00;40.00;;;;;3.60;86.86;98607.56;6314781;20;2864828;-49
2022/02/22 01:50:09;;;;;;;;;37.00;31.00;;;;;3.63;86.43;98610.91;6281813;20;2846216;-50
2022/02/22 01:52:38;;;;;;;;;42.50;37.50;;;;;3.64;87.20;98607.34;6284062;20;2862780;-50
2022/02/22 01:55:08;;;;;;;;;41.00;35.00;;;;;3.73;86.75;98612.16;6282476;20;2746109;-47
2022/02/22 01:57:36;;;;;;;;;23.50;17.00;;;;;3.71;86.04;98611.41;6317064;20;2836761;-47
2022/02/22 02:00:10;;;;;;;;;34.00;30.00;;;;;3.81;85.37;98611.75;6281966;20;2855590;-49
2022/02/22 02:02:41;;;;;;;;;43.00;38.00;;;;;3.77;85.83;98612.88;6282589;20;2707552;-48
2022/02/22 02:05:10;;;;;;;;;50.00;39.33;;;;;3.74;85.20;98618.34;6317168;20;2875365;-47
2022/02/22 02:07:40;;;;;;;;;38.67;36.67;;;;;3.68;85.73;98621.28;6314893;20;2860823;-47
2022/02/22 02:10:10;;;;;;;;;38.67;30.67;;;;;3.64;85.85;98620.59;6315072;20;2866937;-51
2022/02/22 02:12:40;;;;;;;;;37.50;32.00;;;;;3.78;85.94;98627.00;6315240;20;2854407;-48
2022/02/22 02:15:10;;;;;;;;;45.00;40.00;;;;;3.77;88.46;98631.47;6282786;20;2853368;-49
2022/02/22 02:17:39;;;;;;;;;38.50;29.50;;;;;3.64;86.88;98631.22;6283230;20;2858570;-47
2022/02/22 02:20:11;;;;;;;;;28.00;24.00;;;;;3.41;87.25;98628.84;6281771;20;2500373;-48
2022/02/22 02:22:43;;;;;;;;;35.50;35.00;;;;;3.41;87.24;98636.81;6284915;20;2862764;-51
2022/02/22 02:25:14;;;;;;;;;45.00;38.67;;;;;3.23;87.36;98636.75;6284064;20;2874271;-49
2022/02/22 02:27:44;;;;;;;;;49.33;39.67;;;;;3.34;87.29;98646.00;6314676;20;3614863;-50
2022/02/22 02:30:15;;;;;;;;;44.00;35.33;;;;;3.46;87.03;98643.59;6314415;20;3616926;-51
2022/02/22 02:32:44;;;;;;;;;49.00;42.00;;;;;3.31;87.40;98652.31;6313121;20;2855461;-50
2022/02/22 02:35:13;;;;;;;;;47.50;41.00;;;;;3.21;87.24;98654.56;6282968;20;2858669;-52
2022/02/22 02:37:43;;;;;;;;;43.00;36.00;;;;;3.42;87.02;98651.78;6282662;20;2865977;-49
2022/02/22 02:40:32;;;;;;;;;51.00;41.50;;;;;3.43;87.38;98658.84;6283984;20;2861742;-50
2022/02/22 02:43:01;;;;;;;;;43.00;35.50;;;;;3.28;86.96;98653.31;6283615;20;2864828;-49
2022/02/22 02:45:32;;;;;;;;;49.50;40.50;;;;;3.57;86.51;98648.38;6284493;20;2857541;-51
2022/02/22 02:47:59;;;;;;;;;36.00;27.00;;;;;3.55;86.70;98650.25;6281333;20;2856543;-49
2022/02/22 02:50:29;;;;;;;;;49.00;38.67;;;;;3.59;85.58;98643.84;6283295;20;2877419;-48
2022/02/22 02:52:57;;;;;;;;;30.00;29.00;;;;;3.89;84.46;98646.75;6312344;20;2500429;-49
2022/02/22 02:55:27;;;;;;;;;38.00;31.50;;;;;3.84;84.29;98653.22;6281550;20;2854472;-49
2022/02/22 02:57:56;;;;;;;;;46.33;35.00;;;;;3.88;84.09;98662.78;6281707;20;3619111;-50
2022/02/22 03:00:28;;;;;;;;;38.50;30.50;;;;;3.94;84.28;98657.13;6313716;20;2859714;-50
2022/02/22 03:02:57;;;;;;;;;32.00;32.00;;;;;3.68;85.56;98664.63;6281503;20;2848207;-49
2022/02/22 03:05:26;;;;;;;;;41.33;31.00;;;;;3.99;84.66;98657.75;6284868;20;3623190;-50
2022/02/22 03:07:59;;;;;;;;;39.50;35.00;;;;;3.70;85.78;98657.44;6314105;20;2857571;-48
2022/02/22 03:10:28;;;;;;;;;41.00;34.50;;;;;3.78;86.13;98653.56;6283335;20;2886750;-50
2022/02/22 03:12:56;;;;;;;;;35.00;32.50;;;;;3.74;85.96;98656.38;6281954;20;2500319;-50
2022/02/22 03:15:25;;;;;;;;;41.50;31.00;;;;;3.89;86.08;98664.47;6282829;20;2871139;-52
2022/02/22 03:17:52;;;;;;;;;36.00;28.00;;;;;4.00;84.87;98659.47;6281793;20;2500768;-48
2022/02/22 03:20:21;;;;;;;;;34.00;30.00;;;;;3.95;85.41;98658.88;6281866;20;2852404;-52
2022/02/22 03:22:53;;;;;;;;;43.00;30.50;;;;;3.93;84.99;98658.09;6282192;20;2868058;-50
2022/02/22 03:25:23;;;;;;;;;33.33;24.00;;;;;3.92;84.79;98666.97;6282615;20;2865962;-48
2022/02/22 03:27:52;;;;;;;;;26.33;23.00;;;;;4.03;84.66;98664.66;6313713;20;3583579;-47
2022/02/22 03:30:20;;;;;;;;;25.50;20.50;;;;;3.97;84.32;98671.09;6279927;20;2500241;-52
2022/02/22 03:32:48;;;;;;;;;28.50;24.00;;;;;4.02;84.81;98673.53;6279199;20;2500385;-54
2022/02/22 03:35:16;;;;;;;;;29.00;23.00;;;;;4.06;84.53;98676.91;6285504;20;2853447;-48
2022/02/22 03:37:44;;;;;;;;;30.00;27.00;;;;;4.05;84.42;98688.47;6280605;20;2500273;-53
2022/02/22 03:40:12;;;;;;;;;25.50;22.00;;;;;4.04;83.18;98687.59;6280108;20;2844031;-52
2022/02/22 03:42:42;;;;;;;;;30.00;25.50;;;;;4.11;83.00;98693.47;6284716;20;2847245;-52
2022/02/22 03:45:13;;;;;;;;;24.50;22.50;;;;;4.24;82.43;98699.00;6282157;20;2500259;-51
2022/02/22 03:47:42;;;;;;;;;28.50;23.00;;;;;4.32;82.07;98702.13;6278663;20;2500301;-49
2022/02/22 03:50:14;;;;;;;;;31.50;23.50;;;;;4.27;81.86;98702.38;6279883;20;2847550;-49
2022/02/22 03:52:44;;;;;;;;;31.67;26.00;;;;;4.30;82.11;98707.53;6281954;20;2859782;-51
2022/02/22 03:55:13;;;;;;;;;30.00;21.00;;;;;4.37;82.53;98714.25;6310508;20;2500258;-52
2022/02/22 03:57:44;;;;;;;;;32.50;25.50;;;;;4.27;82.47;98709.50;6281630;20;2869016;-53
2022/02/22 04:00:23;;;;;;;;;26.00;20.00;;;;;4.32;81.97;98708.31;6278337;20;2824211;-54
2022/02/22 04:02:53;;;;;;;;;21.33;19.33;;;;;4.14;82.52;98717.22;6284145;20;3534800;-50
2022/02/22 04:05:22;;;;;;;;;23.00;21.00;;;;;4.21;82.36;98715.94;6279590;20;2500281;-48
2022/02/22 04:07:51;;;;;;;;;28.00;21.00;;;;;4.18;82.03;98716.97;6281815;20;3567978;-49
2022/02/22 04:10:19;;;;;;;;;26.00;21.00;;;;;4.28;81.94;98721.81;6276266;20;2496287;-51
2022/02/22 04:12:47;;;;;;;;;27.00;22.50;;;;;4.40;81.78;98722.06;6280030;20;2871198;-49
2022/02/22 04:15:16;;;;;;;;;29.00;23.50;;;;;4.52;81.66;98728.50;6282929;20;2851364;-52
2022/02/22 04:17:43;;;;;;;;;29.00;25.00;;;;;4.64;81.37;98735.00;6281176;20;2500623;-51
2022/02/22 04:20:12;;;;;;;;;24.50;20.00;;;;;4.44;81.36;98733.38;6308195;20;2500245;-52
2022/02/22 04:22:40;;;;;;;;;22.00;19.00;;;;;4.52;81.06;98733.81;6293719;20;2821240;-48
2022/02/22 04:25:10;;;;;;;;;29.00;20.67;;;;;4.42;81.16;98737.91;6281296;20;3567974;-50
2022/02/22 04:27:38;;;;;;;;;32.50;28.50;;;;;4.34;82.35;98727.66;6276112;20;2500809;-49
2022/02/22 04:30:08;;;;;;;;;31.00;26.00;;;;;4.25;82.28;98732.59;6277660;20;2500297;-49
2022/02/22 04:32:37;;;;;;;;;21.00;19.00;;;;;4.07;82.39;98732.59;6282121;20;2500291;-52
2022/02/22 04:35:07;;;;;;;;;27.00;21.50;;;;;4.21;82.87;98742.50;6283159;20;2842942;-51
2022/02/22 04:37:36;;;;;;;;;23.00;20.00;;;;;4.02;83.40;98741.75;6281500;20;2817994;-50
2022/02/22 04:40:06;;;;;;;;;34.33;22.00;;;;;4.39;82.93;98738.06;6277675;20;2863332;-53
2022/02/22 04:42:34;;;;;;;;;21.00;19.00;;;;;4.14;82.53;98747.28;6312539;20;2500257;-50
2022/02/22 04:45:03;;;;;;;;;26.50;21.00;;;;;4.28;83.59;98756.34;6281514;20;2831603;-47
2022/02/22 04:47:31;;;;;;;;;27.00;18.50;;;;;4.16;83.21;98750.75;6278760;20;2831508;-50
2022/02/22 04:49:59;;;;;;;;;22.50;17.50;;;;;4.02;84.53;98750.56;6282155;20;2835769;-52
2022/02/22 04:52:28;;;;;;;;;35.00;20.00;;;;;4.35;84.58;98755.13;6282579;20;3592970;-49
2022/02/22 04:54:59;;;;;;;;;25.00;22.00;;;;;4.24;84.23;98747.69;6280859;20;1981719;-52
2022/02/22 04:57:27;;;;;;;;;26.50;20.50;;;;;4.11;85.18;98746.59;6313778;20;3453439;-51
2022/02/22 04:59:56;;;;;;;;;24.67;18.33;;;;;4.37;84.66;98755.88;6321520;20;3549440;-52
2022/02/22 05:02:24;;;;;;;;;25.50;21.00;;;;;4.16;85.70;98752.50;6322884;20;2830450;-49
2022/02/22 05:04:52;;;;;;;;;20.33;16.67;;;;;4.30;84.59;98747.38;6289311;20;3564814;-49
2022/02/22 05:07:20;;;;;;;;;27.50;20.50;;;;;4.35;84.52;98753.31;6325602;20;2837774;-49
2022/02/22 05:09:49;;;;;;;;;21.33;21.00;;;;;4.12;85.78;98754.47;6291210;20;3556499;-48
2022/02/22 05:12:17;;;;;;;;;19.50;15.00;;;;;4.30;85.18;98754.50;6323008;20;2823194;-51
2022/02/22 05:14:46;;;;;;;;;18.40;15.40;;;;;4.34;85.66;98761.34;6316838;20;2802375;-52
2022/02/22 05:17:14;;;;;;;;;21.50;16.00;;;;;4.21;86.03;98758.47;6291870;20;2829439;-52
2022/02/22 05:19:43;;;;;;;;;21.67;17.00;;;;;4.03;86.94;98751.41;6289094;20;3560659;-51
2022/02/22 05:22:15;;;;;;;;;21.67;17.00;;;;;4.15;87.06;98746.34;6320916;20;3558559;-48
2022/02/22 05:24:44;;;;;;;;;17.60;14.60;;;;;4.33;86.67;98757.00;6313011;20;2803440;-49
2022/02/22 05:27:14;;;;;;;;;19.00;14.20;;;;;4.23;86.84;98761.03;6315428;20;2827407;-51
2022/02/22 05:29:45;;;;;;;;;15.43;13.86;;;;;4.31;87.75;98764.16;6329493;20;1812827;-43
2022/02/22 05:32:14;;;;;;;;;18.67;11.67;;;;;4.11;88.19;98759.88;6319498;20;2799292;-45
2022/02/22 05:34:43;;;;;;;;;16.67;14.00;;;;;3.98;89.53;98762.28;6321893;20;3548122;-45
2022/02/22 05:37:10;;;;;;;;;22.50;16.50;;;;;3.93;89.10;98761.66;6320935;20;2828367;-44
2022/02/22 05:39:38;;;;;;;;;12.00;11.00;;;;;4.07;89.19;98760.97;6288092;20;2802529;-46
2022/02/22 05:42:07;;;;;;;;;23.00;17.67;;;;;3.97;89.47;98771.16;6290461;20;3557535;-44
2022/02/22 05:44:36;;;;;;;;;20.00;18.33;;;;;4.12;89.33;98773.06;6322431;20;3560655;-44
2022/02/22 05:47:05;;;;;;;;;20.00;15.33;;;;;3.98;89.75;98775.56;6320874;20;3540932;-46
2022/02/22 05:49:33;;;;;;;;;16.00;12.50;;;;;4.18;90.15;98779.88;6321346;20;2805702;-43
2022/02/22 05:52:01;;;;;;;;;17.00;15.00;;;;;4.33;89.20;98781.75;6291449;20;2801299;-45
2022/02/22 05:54:30;;;;;;;;;15.75;8.00;;;;;4.37;88.95;98790.41;6307127;20;1827407;-44
2022/02/22 05:56:58;;;;;;;;;15.00;12.50;;;;;4.30;89.25;98784.56;6323341;20;2796136;-44
2022/02/22 05:59:25;;;;;;;;;13.00;13.00;;;;;4.44;90.04;98788.31;6288554;20;2796086;-45
2022/02/22 06:01:54;;;;;;;;;16.00;16.00;;;;;4.70;88.51;98800.28;6289729;20;3555523;-45
2022/02/22 06:04:23;;;;;;;;;15.67;14.67;;;;;4.66;88.85;98801.38;6321080;20;3547156;-45
2022/02/22 06:06:53;;;;;;;;;8.75;8.75;;;;;4.74;88.84;98809.81;6309913;20;1803455;-45
2022/02/22 06:09:22;;;;;;;;;15.67;15.67;;;;;5.11;87.53;98810.53;6317004;20;3550231;-45
2022/02/22 06:11:51;;;;;;;;;16.20;13.60;;;;;5.07;87.27;98815.16;6338529;20;2815970;-43
2022/02/22 06:14:20;;;;;;;;;11.67;11.67;;;;;5.26;86.48;98817.69;6285693;20;2796140;-45
2022/02/22 06:16:48;;;;;;;;;15.50;13.00;;;;;5.32;86.44;98817.38;6314905;20;2796213;-44
2022/02/22 06:19:20;;;;;;;;;20.33;17.83;;;;;5.47;85.93;98821.00;6307920;20;2839999;-44
2022/02/22 06:21:49;;;;;;;;;22.00;22.00;;;;;5.66;85.57;98827.03;6316272;20;3562785;-44
2022/02/22 06:24:18;;;;;;;;;18.60;14.00;;;;;5.84;84.68;98829.59;6310770;20;2820093;-44
2022/02/22 06:26:47;;;;;;;;;18.67;14.33;;;;;5.90;84.74;98829.28;6284835;20;3554404;-45
2022/02/22 06:29:15;;;;;;;;;12.00;10.00;;;;;6.11;83.72;98836.09;6316125;20;2783594;-44
2022/02/22 06:31:43;;;;;;;;;9.00;7.00;;;;;6.31;83.01;98840.25;6284975;20;2735686;-44
2022/02/22 06:34:12;;;;;;;;;10.00;10.00;;;;;6.50;81.90;98848.06;6341881;20;2771105;-43
2022/02/22 06:36:40;;;;;;;;;6.00;4.00;;;;;6.58;80.53;98853.81;6285447;20;2753498;-45
2022/02/22 06:39:08;;;;;;;;;5.00;4.00;;;;;6.62;80.28;98854.47;6286554;20;2754490;-49
2022/02/22 06:41:36;;;;;;;;;7.00;6.00;;;;;6.77;79.55;98858.91;6286491;20;2748333;-45
2022/02/22 06:44:05;;;;;;;;;3.00;3.00;;;;;6.75;78.80;98866.13;6317678;20;2751286;-46
2022/02/22 06:46:34;;;;;;;;;7.00;7.00;;;;;6.52;79.66;98859.47;6303565;20;1823424;-44
2022/02/22 06:49:02;;;;;;;;;10.00;7.00;;;;;6.47;78.89;98863.38;6333069;20;1805619;-49
2022/02/22 06:51:30;;;;;;;;;10.50;6.00;;;;;6.58;78.62;98864.47;6316389;20;2760080;-49
2022/02/22 06:53:58;;;;;;;;;9.50;7.00;;;;;6.64;77.70;98878.41;6287911;20;2756619;-48
2022/02/22 06:56:26;;;;;;;;;7.00;4.00;;;;;7.40;76.37;98870.28;6318194;20;2752386;-46
2022/02/22 06:58:54;;;;;;;;;7.00;7.00;;;;;8.17;72.23;98879.63;6302271;20;1805379;-49
2022/02/22 07:01:23;;;;;;;;;5.00;4.00;;;;;8.71;69.55;98881.47;6334317;20;1820155;-46
2022/02/22 07:03:51;;;;;;;;;4.00;4.00;;;;;9.07;68.59;98890.66;6318250;20;2752421;-46
2022/02/22 07:06:18;;;;;;;;;4.00;3.00;;;;;9.80;65.50;98901.63;6285612;20;2750318;-45
2022/02/22 07:08:48;;;;;;;;;12.00;5.80;;;;;9.96;65.49;98900.53;6308177;20;2770570;-45
2022/02/22 07:11:16;;;;;;;;;4.00;3.00;;;;;10.36;63.81;98905.72;6302904;20;1826393;-43
2022/02/22 07:13:44;;;;;;;;;10.00;5.00;;;;;10.49;63.02;98909.22;6318322;20;2753435;-46
2022/02/22 07:16:16;;;;;;;;;6.29;6.00;;;;;10.75;61.55;98916.19;6328642;20;1801351;-45
2022/02/22 07:18:45;;;;;;;;;12.00;12.00;;;;;11.07;61.38;98920.97;6315807;20;2812747;-44
2022/02/22 07:21:13;;;;;;;;;5.00;3.00;;;;;11.30;59.68;98929.09;6286539;20;2753630;-44
2022/02/22 07:23:41;;;;;;;;;4.00;4.00;;;;;9.95;63.07;98931.84;6286188;20;2752436;-44
2022/02/22 07:26:09;;;;;;;;;5.00;5.00;;;;;9.42;66.52;98934.63;6283002;20;2756566;-46
2022/02/22 07:28:38;;;;;;;;;4.00;4.00;;;;;9.35;66.58;98938.72;6290359;20;2746195;-44
2022/02/22 07:31:06;;;;;;;;;4.00;4.00;;;;;9.01;67.48;98935.63;6288210;20;2743019;-43
2022/02/22 07:33:34;;;;;;;;;4.00;4.00;;;;;8.62;68.60;98939.16;6288215;20;2745072;-43
2022/02/22 07:36:03;;;;;;;;;2.25;2.00;;;;;8.61;69.51;98948.16;6305165;20;1810806;-43
2022/02/22 07:38:31;;;;;;;;;4.00;4.00;;;;;8.47;69.33;98951.69;6319160;20;2754532;-44
2022/02/22 07:41:00;;;;;;;;;6.50;6.00;;;;;8.41;68.89;98957.44;6289028;20;2756577;-46
2022/02/22 07:43:28;;;;;;;;;4.00;3.00;;;;;8.43;68.32;98963.56;6290862;20;2731497;-43
2022/02/22 07:45:55;;;;;;;;;3.00;3.00;;;;;8.50;68.86;98964.00;6321947;20;2747116;-43
2022/02/22 07:48:24;;;;;;;;;4.00;3.00;;;;;8.47;68.55;98977.59;6307285;20;1799232;-43
2022/02/22 07:50:52;;;;;;;;;1.50;1.50;;;;;8.38;68.78;98971.00;6318656;20;2737763;-43
2022/02/22 07:53:19;;;;;;;;;4.00;4.00;;;;;8.18;68.66;98972.25;6319596;20;2756524;-41
2022/02/22 07:55:47;;;;;;;;;2.00;2.00;;;;;8.28;69.12;98977.88;6283951;20;2748282;-44
2022/02/22 07:58:16;;;;;;;;;6.00;3.00;;;;;8.60;68.14;98980.34;6287150;20;2750249;-45
2022/02/22 08:00:43;;;;;;;;;2.00;2.00;;;;;8.53;67.52;98988.78;6288973;20;2752463;-43
2022/02/22 08:03:11;;;;;;;;;9.50;9.00;;;;;8.78;67.92;98989.84;6286491;20;2756560;-45
2022/02/22 08:05:40;;;;;;;;;5.50;3.50;;;;;8.86;67.01;98998.22;6305789;20;1812824;-43
2022/02/22 08:08:09;;;;;;;;;3.25;3.25;;;;;9.16;66.53;99003.38;6334556;20;1818087;-44
2022/02/22 08:10:38;;;;;;;;;2.75;2.00;;;;;9.21;67.39;99013.78;6336926;20;1807421;-42
2022/02/22 08:13:07;;;;;;;;;1.00;1.00;;;;;8.97;66.59;99014.44;6334386;20;1803457;-45
2022/02/22 08:15:35;;;;;;;;;3.00;3.00;;;;;8.67;66.35;99011.97;6321376;20;2742982;-43
2022/02/22 08:18:03;;;;;;;;;2.00;2.00;;;;;8.74;66.70;99012.41;6336238;20;1811834;-47
2022/02/22 08:20:32;;;;;;;;;3.00;1.00;;;;;8.95;65.71;99005.66;6335603;20;1803829;-46
2022/02/22 08:23:02;;;;;;;;;3.00;3.00;;;;;8.86;65.91;99006.25;6339360;20;1808685;-46
2022/02/22 08:25:30;;;;;;;;;3.00;2.00;;;;;9.11;65.14;99007.31;6320248;20;2750274;-48
2022/02/22 08:27:58;;;;;;;;;3.00;3.00;;;;;9.02;65.63;99009.63;6287614;20;2741921;-46
2022/02/22 08:30:27;;;;;;;;;2.00;2.00;;;;;8.77;65.42;99017.59;6332719;20;1802375;-56
2022/02/22 08:32:56;;;;;;;;;2.25;1.50;;;;;8.95;65.23;99013.69;6333678;20;1809779;-54
2022/02/22 08:35:24;;;;;;;;;3.00;3.00;;;;;8.98;65.84;99021.53;6320341;20;2756490;-56
2022/02/22 08:37:54;;;;;;;;;2.00;2.00;;;;;9.23;65.02;99014.53;6289141;20;2751330;-57
2022/02/22 08:40:23;;;;;;;;;2.00;2.00;;;;;8.91;64.80;99020.22;6303499;20;1818100;-44
2022/02/22 08:42:52;;;;;;;;;3.00;3.00;;;;;9.86;63.01;99016.47;6320014;20;2746130;-45
2022/02/22 08:45:24;;;;;;;;;7.00;3.00;;;;;9.26;63.59;99013.47;6286759;20;2742031;-53
2022/02/22 08:47:54;;;;;;;;;3.00;3.00;;;;;9.66;64.34;99019.66;6318290;20;2747132;-45
2022/02/22 08:50:25;;;;;;;;;3.75;2.75;;;;;9.09;63.39;99025.31;6300653;20;1813880;-45
2022/02/22 08:52:54;;;;;;;;;3.00;3.00;;;;;9.34;63.35;99036.09;6330423;20;1809970;-44
2022/02/22 08:55:23;;;;;;;;;3.50;3.00;;;;;8.94;63.60;99029.84;6333285;20;1810887;-44
2022/02/22 08:57:53;;;;;;;;;2.00;2.00;;;;;9.18;64.33;99038.09;6335038;20;1809727;-44
2022/02/22 09:00:23;;;;;;;;;3.00;3.00;;;;;9.24;63.80;99043.03;6314360;20;2749252;-47
2022/02/22 09:02:57;;;;;;;;;3.00;2.00;;;;;9.04;64.42;99046.19;6285428;20;2746135;-44
2022/02/22 09:05:34;;;;;;;;;2.00;2.00;;;;;9.77;62.98;99051.97;6304255;20;1806665;-45
2022/02/22 09:08:05;;;;;;;;;2.00;2.00;;;;;9.45;62.73;99063.06;6320756;20;2750276;-46
2022/02/22 09:10:34;;;;;;;;;1.25;1.25;;;;;9.63;62.06;99057.41;6304610;20;1807629;-45
2022/02/22 09:13:06;;;;;;;;;2.00;2.00;;;;;9.53;63.14;99069.69;6333291;20;1810667;-51
2022/02/22 09:15:34;;;;;;;;;2.00;2.00;;;;;9.60;62.69;99071.00;6316931;20;2737745;-51
2022/02/22 09:18:03;;;;;;;;;2.00;2.00;;;;;9.75;63.50;99069.97;6331146;20;1813992;-49
2022/02/22 09:20:32;;;;;;;;;1.00;1.00;;;;;8.77;63.03;99081.81;6333188;20;1805527;-51
2022/02/22 09:23:01;;;;;;;;;2.00;2.00;;;;;9.73;61.88;99087.97;6331411;20;1812265;-50
2022/02/22 09:25:35;;;;;;;;;2.00;0.75;;;;;9.40;61.58;99081.25;6336265;20;1802423;-53
2022/02/22 09:28:08;;;;;;;;;3.00;2.00;;;;;9.51;62.16;99087.72;6317371;20;2754496;-51
2022/02/22 09:30:37;;;;;;;;;1.00;1.00;;;;;9.90;61.40;99094.91;6305549;20;1807680;-55
2022/02/22 09:33:09;;;;;;;;;2.00;2.00;;;;;9.02;62.25;99092.66;6334704;20;1805037;-53
2022/02/22 09:35:39;;;;;;;;;1.50;1.50;;;;;9.31;61.75;99092.56;6335881;20;1803428;-53
2022/02/22 09:38:10;;;;;;;;;3.00;3.00;;;;;9.67;61.47;99096.44;6314837;20;2755527;-51
2022/02/22 09:40:40;;;;;;;;;4.00;2.00;;;;;9.49;61.01;99097.69;6301939;20;1811228;-52
2022/02/22 09:43:09;;;;;;;;;0.25;0.25;;;;;9.36;61.26;99093.13;6335422;20;1802561;-55
2022/02/22 09:45:37;;;;;;;;;3.00;1.50;;;;;9.35;60.64;99083.38;6324247;20;2737757;-54
2022/02/22 09:48:08;;;;;;;;;3.40;3.40;;;;;9.98;60.32;99087.19;6363367;20;2481555;-48
2022/02/22 09:50:36;;;;;;;;;2.00;2.00;;;;;9.64;60.28;99093.97;6322910;20;2753366;-50
2022/02/22 09:53:05;;;;;;;;;5.00;4.00;;;;;9.76;60.72;99095.81;6291180;20;2743992;-49
2022/02/22 09:55:34;;;;;;;;;4.00;3.00;;;;;10.05;59.86;99098.31;6322061;20;2754530;-46
2022/02/22 09:58:02;;;;;;;;;4.50;2.00;;;;;10.21;60.42;99096.28;6291607;20;2756517;-49
2022/02/22 10:00:32;;;;;;;;;2.00;2.00;;;;;10.09;60.66;99103.38;6288435;20;2746198;-50
2022/02/22 10:03:17;;;;;;;;;3.00;2.00;;;;;10.35;59.75;99103.44;6307991;20;1806630;-48
2022/02/22 10:06:03;;;;;;;;;4.50;2.00;;;;;9.97;59.51;99100.69;6323288;20;2755494;-48
2022/02/22 10:08:39;;;;;;;;;3.75;3.00;;;;;10.42;59.51;99111.91;6304705;20;1808752;-55
2022/02/22 10:11:11;;;;;;;;;7.00;3.00;;;;;10.14;58.88;99124.53;6322635;20;2741020;-56
2022/02/22 10:13:46;;;;;;;;;3.50;3.00;;;;;10.58;57.83;99128.63;6292477;20;2757568;-57
2022/02/22 10:16:16;;;;;;;;;2.50;2.00;;;;;10.53;58.82;99122.72;6289199;20;2753372;-57
2022/02/22 10:18:53;;;;;;;;;3.00;1.50;;;;;10.41;57.38;99128.97;6287909;20;2746090;-57
2022/02/22 10:21:23;;;;;;;;;2.00;2.00;;;;;10.40;57.02;99124.56;6305663;20;1814949;-57
2022/02/22 10:23:52;;;;;;;;;3.00;2.00;;;;;10.33;56.78;99124.16;6322899;20;2748220;-58
2022/02/22 10:26:28;;;;;;;;;2.50;2.00;;;;;10.27;56.10;99133.47;6290696;20;2735800;-57
2022/02/22 10:28:56;;;;;;;;;8.00;3.00;;;;;10.25;55.97;99143.41;6284598;20;2751362;-52
2022/02/22 10:31:34;;;;;;;;;1.25;1.25;;;;;10.11;55.72;99130.13;6308696;20;1816162;-51
2022/02/22 10:34:03;;;;;;;;;6.00;2.00;;;;;10.24;56.12;99139.03;6319484;20;2748318;-53
2022/02/22 10:36:50;;;;;;;;;2.00;2.00;;;;;10.31;56.53;99132.28;6307065;20;1815953;-50
2022/02/22 10:39:20;;;;;;;;;7.00;3.00;;;;;10.47;56.26;99140.13;6319878;20;2751376;-51
2022/02/22 10:41:55;;;;;;;;;14.00;4.00;;;;;10.45;56.11;99143.88;6289654;20;2789903;-50
2022/02/22 10:44:33;;;;;;;;;15.50;5.00;;;;;10.47;55.77;99145.50;6286768;20;2799370;-50
2022/02/22 10:47:19;;;;;;;;;10.50;4.50;;;;;10.63;54.86;99147.09;6303070;20;1821238;-49
2022/02/22 10:49:49;;;;;;;;;5.00;2.00;;;;;11.00;55.07;99153.41;6317404;20;2752340;-52
2022/02/22 10:52:29;;;;;;;;;4.00;1.00;;;;;10.47;54.69;99150.00;6290064;20;2728422;-50
2022/02/22 10:55:01;;;;;;;;;4.75;2.00;;;;;10.47;54.12;99148.19;6302808;20;1806284;-50
2022/02/22 10:57:32;;;;;;;;;3.00;1.00;;;;;10.83;54.03;99160.00;6323541;20;2737742;-53
2022/02/22 11:00:05;;;;;;;;;10.00;4.00;;;;;11.03;53.23;99161.22;6310208;20;2796143;-47
2022/02/22 11:02:34;;;;;;;;;1.00;1.00;;;;;10.93;51.88;99165.56;6318029;20;2737836;-49
2022/02/22 11:05:22;;;;;;;;;4.00;1.00;;;;;11.06;52.12;99166.41;6306561;20;1807275;-49
2022/02/22 11:07:53;;;;;;;;;1.75;1.00;;;;;10.72;52.08;99171.50;6337541;20;1805136;-48
2022/02/22 11:10:31;;;;;;;;;1.50;0.00;;;;;10.33;51.68;99183.19;6329994;20;1805109;-54
2022/02/22 11:13:01;;;;;;;;;2.25;1.00;;;;;10.69;50.42;99174.41;6330795;20;1807675;-49
2022/02/22 11:15:37;;;;;;;;;7.00;1.00;;;;;10.91;50.74;99172.88;6329630;20;1803483;-50
2022/02/22 11:18:20;;;;;;;;;3.75;1.00;;;;;10.89;49.49;99185.53;6327575;20;1803554;-49
2022/02/22 11:20:49;;;;;;;;;6.00;1.00;;;;;11.00;49.88;99180.25;6314307;20;2737750;-48
2022/02/22 11:23:28;;;;;;;;;2.00;1.50;;;;;10.83;48.54;99186.00;6283233;20;2739842;-48
2022/02/22 11:26:19;;;;;;;;;0.00;0.00;;;;;11.03;48.67;99184.56;6303153;20;1803595;-58